This is the latest recevied weather packets stored in our database for station/object KA9CBS. If no packets are shown the sender has not sent any weather packets the latest 10 day(s).
| Time | Temp. | Humidity | Pressure | Rain* | Wind** | Luminosity | Snow |
|---|---|---|---|---|---|---|---|
| 1787549113 | 17.22° C | 89% | 1019.1 hPa | 0 mm | - | 0 W/m² | - |
| 1787548809 | 17.78° C | 87% | 1019.2 hPa | 0 mm | - | 0 W/m² | - |
| 1787548505 | 17.78° C | 87% | 1019 hPa | 0 mm | - | 0 W/m² | - |
| 1787548200 | 17.78° C | 87% | 1018.8 hPa | 0 mm | - | 0 W/m² | - |
| 1787547896 | 17.78° C | 87% | 1018.9 hPa | 0 mm | - | 0 W/m² | - |
| 1787547595 | 17.78° C | 87% | 1018.8 hPa | 0 mm | - | 0 W/m² | - |
| 1787547292 | 17.78° C | 89% | 1018.8 hPa | 0 mm | - | 0 W/m² | - |
| 1787546986 | 17.78° C | 89% | 1018.9 hPa | 0 mm | - | 0 W/m² | - |
| 1787546682 | 17.78° C | 89% | 1018.9 hPa | 0 mm | - | 0 W/m² | - |
| 1787546377 | 17.78° C | 88% | 1018.8 hPa | 0 mm | - | 0 W/m² | - |
| 1787546074 | 18.89° C | 85% | 1018.8 hPa | 0 mm | - | 0 W/m² | - |
| 1787545768 | 18.89° C | 84% | 1019 hPa | 0 mm | - | 0 W/m² | - |
| 1787545465 | 18.89° C | 84% | 1019 hPa | 0 mm | - | 0 W/m² | - |
| 1787545161 | 18.33° C | 86% | 1018.8 hPa | 0 mm | - | 0 W/m² | - |
| 1787544858 | 17.78° C | 89% | 1018.9 hPa | 0 mm | - | 0 W/m² | - |
| 1787544554 | 17.22° C | 90% | 1018.9 hPa | 0 mm | - | 0 W/m² | - |
| 1787544250 | 17.78° C | 90% | 1018.9 hPa | 0 mm | - | 0 W/m² | - |
| 1787543944 | 17.78° C | 89% | 1018.9 hPa | 0 mm | - | 0 W/m² | - |
| 1787543640 | 17.78° C | 88% | 1018.9 hPa | 0 mm | - | 0 W/m² | - |
| 1787543336 | 17.78° C | 87% | 1018.9 hPa | 0 mm | - | 0 W/m² | - |
| 1787543032 | 17.78° C | 88% | 1018.9 hPa | 0 mm | - | 0 W/m² | - |
| 1787542726 | 18.33° C | 87% | 1019.2 hPa | 0 mm | - | 0 W/m² | - |
| 1787542422 | 17.78° C | 88% | 1019 hPa | 0 mm | - | 0 W/m² | - |
| 1787542117 | 17.78° C | 88% | 1019.1 hPa | 0 mm | - | 0 W/m² | - |
| 1787541814 | 18.33° C | 87% | 1018.9 hPa | 0 mm | - | 0 W/m² | - |
* Rain latest hour (hover to see other rain measurements)
** Current wind speed in m/s (hover to see current wind gust speed)